Fort Dodge Regional Airport
KFOD : rendu visible

Aérodrome :











RETROUVEZ-NOUS SUR...

 
LOGIN :

S'inscrire | Disclaimer

   EN    FR    IT 

 









Légende :    VFR   VFR Marginal   IFR   IFR Intensif   IFR Très Intensif
Visi : 
Plafond : 
>= 8 km
>= 3000ft
5 à 8 km
1000 à 3000 ft
1500m à 5 km
500 à 1000 ft
800 à 1500m
200 à 500 ft
< 800m
< 200 ft
Symboles :   Orages  Brouillard  Fortes neiges  Fortes précipitations  Vent > 20 kt






- Altitude de l'aérodrome : 1156 ft
- Code IATA : FOD


KFOD - Fort Dodge Regional

DERNIER METAR :
  • 061156Z AUTO 12005KT 10SM BKN060 OVC080 17/16 A3006 RMK AO2 SLP200 60000 T01670156 10194 20167 53004

METARs EXPIRÉS :
  • 061056Z AUTO 12003KT 10SM FEW060 BKN110 17/16 A3005 RMK AO2 RAE24 SLP196 P0000 T01720156
  • 060956Z AUTO 14006KT 10SM -RA FEW060 OVC100 18/16 A3004 RMK AO2 RAB30 SLP193 P0000 T01780156

TAF KFOD
Valide du 06 à 12h jusqu'au 07 à 12h UTC


061120Z 0612/0712 15007KT P6SM VCSH SCT035 BKN050
FM061800 17011KT P6SM BKN040
FIR KZMP / Amérique du Nord



MET'MAP, la Météo Aéronautique d'un coup d'oeil ! - Copyright ORBIFLY Décembre 2007 - Disclaimer

ORBIFLY MET'MAP TEAM :

Programmation & Développement : Alexandra Zaïnal
Sur une idée originale de : Baudouin d'Aumeries
Assistance à la programmation : Marc-Olivier Méhu
Soutien technique & logistique : Manuel Goepfert

Contact : metmap@orbifly.com




SOURCES & CREDITS :

   NOAA       Earth
Advisory